Terminal Aerodrome Forecast
Issued by NWS Sioux Falls, SD

Home | Current Version | Previous Version | Graphics & Text | Print | Product List | Glossary On
Versions: 1 2 3 4 5 6 7 8 9 10 11 12 13 14 15 16 17 18 19 20 21 22 23 24 25 26 27 28 29 30
776
FTUS43 KFSD 231141
TAFSUX
TAF
KSUX 231141Z 2312/2412 14008KT P6SM OVC250
     FM231500 16014KT P6SM SCT100 OVC200
     FM231700 16015G23KT P6SM VCTS SCT035 OVC100CB
     FM232000 17015G23KT P6SM BKN040
      TEMPO 2320/2323 4SM TSRA OVC025CB
     FM240000 19011KT P6SM OVC070
      TEMPO 2400/2402 6SM TSRA OVC035CB
     FM240200 15005KT P6SM SCT035 BKN110
     FM240800 33005KT P6SM BKN140=

USA.gov is the U.S. government's official web portal to all federal, state and local government web resources and services.